Time;durP1;ratioP1;P1;durP2;ratioP2;P2;SDS_P1;SDS_P2;PMS_P1;PMS_P2;Temp;Humidity;BMP_temperature;BMP_pressure;BME280_temperature;BME280_humidity;BME280_pressure;Samples;Min_cycle;Max_cycle;Signal;HPM_P1;HPM_P2
2021/08/12 00:02:23;;;;;;;13.30;9.80;;;14.20;99.90;;;;;;5009480;28;20397;-87
2021/08/12 00:04:49;;;;;;;15.07;9.20;;;14.10;99.90;;;;;;5013201;28;20034;-86
2021/08/12 00:07:15;;;;;;;12.48;9.02;;;14.20;99.90;;;;;;5005380;28;20106;-87
2021/08/12 00:09:40;;;;;;;16.88;12.15;;;14.10;99.90;;;;;;5015854;28;20113;-87
2021/08/12 00:12:06;;;;;;;22.00;13.45;;;14.10;99.90;;;;;;5012346;28;20293;-87
2021/08/12 00:14:32;;;;;;;15.77;11.70;;;14.10;99.90;;;;;;5013514;28;20101;-87
2021/08/12 00:16:57;;;;;;;14.63;10.60;;;14.10;99.90;;;;;;5014564;28;20038;-87
2021/08/12 00:19:23;;;;;;;12.40;9.75;;;14.10;99.90;;;;;;5007225;28;20033;-87
2021/08/12 00:21:48;;;;;;;12.38;9.73;;;14.00;99.90;;;;;;5013232;28;20022;-87
2021/08/12 00:24:14;;;;;;;15.15;10.07;;;14.00;99.90;;;;;;5014692;28;20030;-86
2021/08/12 00:26:41;;;;;;;14.18;10.73;;;14.00;99.90;;;;;;5007652;28;22164;-87
2021/08/12 00:29:07;;;;;;;14.63;10.55;;;13.90;99.90;;;;;;5001303;28;20475;-87
2021/08/12 00:31:33;;;;;;;16.42;9.57;;;13.90;99.90;;;;;;4999424;28;20034;-87
2021/08/12 00:33:59;;;;;;;16.35;10.27;;;13.90;99.90;;;;;;5010959;28;20421;-87
2021/08/12 00:36:24;;;;;;;13.40;9.43;;;13.80;99.90;;;;;;5007848;28;20033;-87
2021/08/12 00:38:51;;;;;;;13.30;10.05;;;13.80;99.90;;;;;;5015617;28;20014;-88
2021/08/12 00:41:16;;;;;;;16.02;11.32;;;13.80;99.90;;;;;;5015240;28;20022;-87
2021/08/12 00:43:42;;;;;;;18.17;11.40;;;13.80;99.90;;;;;;5012059;28;20066;-87
2021/08/12 00:46:07;;;;;;;14.77;10.70;;;13.80;99.90;;;;;;5014791;28;20030;-88
2021/08/12 00:48:33;;;;;;;17.52;12.00;;;13.80;99.90;;;;;;4997203;28;20034;-87
2021/08/12 00:50:59;;;;;;;18.00;12.10;;;13.80;99.90;;;;;;5013234;28;20026;-88
2021/08/12 00:53:25;;;;;;;14.43;10.23;;;13.70;99.90;;;;;;5008446;28;20042;-88
2021/08/12 00:55:50;;;;;;;12.70;9.10;;;13.70;99.90;;;;;;5015685;28;20030;-86
2021/08/12 00:58:17;;;;;;;17.58;11.45;;;13.70;99.90;;;;;;5014481;28;20030;-86
2021/08/12 01:00:49;;;;;;;12.73;8.88;;;13.60;99.90;;;;;;5014484;28;20025;-87
2021/08/12 01:03:16;;;;;;;;;;;13.60;99.90;;;;;;5015108;28;20038;-87
2021/08/12 01:05:56;;;;;;;12.48;8.65;;;13.60;99.90;;;;;;5013837;28;19918;-86
2021/08/12 01:08:59;;;;;;;17.02;10.18;;;13.50;99.90;;;;;;5007484;28;20109;-86
2021/08/12 01:11:44;;;;;;;14.50;9.73;;;13.50;99.90;;;;;;4997621;28;20034;-86
2021/08/12 01:14:52;;;;;;;13.35;9.68;;;13.50;99.90;;;;;;5013059;28;20041;-86
2021/08/12 01:17:22;;;;;;;11.20;7.85;;;13.50;99.90;;;;;;5011083;28;20425;-86
2021/08/12 01:20:06;;;;;;;16.33;11.00;;;13.50;99.90;;;;;;5017216;28;20022;-87
2021/08/12 01:22:38;;;;;;;23.65;12.75;;;13.50;99.90;;;;;;5016143;28;20089;-85
2021/08/12 01:25:09;;;;;;;13.25;9.70;;;13.50;99.90;;;;;;5018936;28;20026;-86
2021/08/12 01:27:37;;;;;;;16.92;12.40;;;13.50;99.90;;;;;;5014224;28;20030;-86
2021/08/12 01:30:06;;;;;;;11.60;8.93;;;13.50;99.90;;;;;;5015916;28;20026;-86
2021/08/12 01:32:50;;;;;;;9.77;7.47;;;13.50;99.90;;;;;;4997988;28;20089;-86
2021/08/12 01:35:21;;;;;;;15.15;9.40;;;13.50;99.90;;;;;;5007023;28;20026;-86
2021/08/12 01:38:06;;;;;;;14.18;10.63;;;13.50;99.90;;;;;;5008695;28;20057;-86
2021/08/12 01:40:34;;;;;;;12.50;10.18;;;13.50;99.90;;;;;;5015716;28;20556;-86
2021/08/12 01:43:04;;;;;;;19.02;11.88;;;13.50;99.90;;;;;;5012120;28;20033;-86
2021/08/12 01:45:30;;;;;;;20.30;14.48;;;13.60;99.90;;;;;;5012457;28;20030;-86
2021/08/12 01:47:57;;;;;;;17.65;13.55;;;13.60;99.90;;;;;;5006572;28;20049;-86
2021/08/12 01:50:25;;;;;;;20.85;13.32;;;13.70;99.90;;;;;;5007881;28;20030;-86
2021/08/12 01:52:51;;;;;;;20.08;14.13;;;13.70;99.90;;;;;;5010804;28;20033;-86
2021/08/12 01:55:20;;;;;;;19.13;13.73;;;13.70;99.90;;;;;;5014632;28;20528;-86
2021/08/12 01:57:46;;;;;;;19.30;14.00;;;13.80;99.90;;;;;;5011173;28;20030;-86
2021/08/12 02:00:12;;;;;;;24.23;15.45;;;13.80;99.90;;;;;;5012791;28;20113;-86
2021/08/12 02:02:41;;;;;;;26.98;17.83;;;13.90;99.90;;;;;;5003716;28;20116;-86
2021/08/12 02:05:10;;;;;;;21.08;15.85;;;13.90;99.90;;;;;;5010271;28;20047;-86
2021/08/12 02:07:37;;;;;;;23.83;16.60;;;14.00;99.90;;;;;;5004416;28;20041;-86
2021/08/12 02:10:04;;;;;;;22.17;15.30;;;14.00;99.90;;;;;;5012176;28;20061;-86
2021/08/12 02:12:29;;;;;;;24.70;15.82;;;14.00;99.90;;;;;;5005647;28;20057;-86
2021/08/12 02:14:55;;;;;;;21.77;16.35;;;14.00;99.90;;;;;;5003591;28;20022;-86
2021/08/12 02:17:20;;;;;;;26.75;17.85;;;14.10;99.90;;;;;;5012183;28;20030;-86
2021/08/12 02:19:46;;;;;;;24.67;17.38;;;14.10;99.90;;;;;;5013935;28;20022;-85
2021/08/12 02:22:20;;;;;;;23.25;16.50;;;14.10;99.90;;;;;;5010494;28;20034;-86
2021/08/12 02:25:00;;;;;;;25.02;18.00;;;14.10;99.90;;;;;;5011239;28;20049;-86
2021/08/12 02:27:27;;;;;;;27.17;18.50;;;14.10;99.90;;;;;;5013132;28;20497;-86
2021/08/12 02:29:53;;;;;;;20.58;15.25;;;14.10;99.90;;;;;;5013143;28;20056;-86
2021/08/12 02:32:23;;;;;;;20.00;15.25;;;14.10;99.90;;;;;;5007345;28;20041;-86
2021/08/12 02:34:51;;;;;;;18.20;13.80;;;14.00;99.90;;;;;;5008713;28;20030;-86
2021/08/12 02:37:18;;;;;;;18.17;13.00;;;14.00;99.90;;;;;;5013838;28;20037;-87
2021/08/12 02:39:45;;;;;;;17.55;12.75;;;14.00;99.90;;;;;;5011384;28;20076;-86
2021/08/12 02:42:12;;;;;;;23.05;14.35;;;14.00;99.90;;;;;;5015476;28;20025;-87
2021/08/12 02:44:41;;;;;;;21.20;15.20;;;14.00;99.90;;;;;;5009992;28;20029;-86
2021/08/12 02:47:07;;;;;;;24.05;16.90;;;14.00;99.90;;;;;;5013380;28;20469;-86
2021/08/12 02:49:39;;;;;;;19.88;15.50;;;14.00;99.90;;;;;;5008304;28;20038;-86
2021/08/12 02:52:06;;;;;;;21.70;16.05;;;14.00;99.90;;;;;;5009797;28;20081;-86
2021/08/12 02:54:32;;;;;;;25.35;15.90;;;14.00;99.90;;;;;;5009401;28;20103;-87
2021/08/12 02:56:59;;;;;;;21.35;15.48;;;14.00;99.90;;;;;;5007854;28;20057;-87
2021/08/12 02:59:25;;;;;;;24.20;16.80;;;14.00;99.90;;;;;;5002818;28;20116;-88
2021/08/12 03:01:53;;;;;;;24.02;16.45;;;14.00;99.90;;;;;;5007354;28;20486;-88
2021/08/12 03:04:19;;;;;;;21.98;17.08;;;14.00;99.90;;;;;;5003339;28;20030;-87
2021/08/12 03:06:46;;;;;;;24.55;18.95;;;14.00;99.90;;;;;;5007944;28;20108;-87
2021/08/12 03:09:13;;;;;;;23.88;17.73;;;14.00;99.90;;;;;;5005768;28;20105;-87
2021/08/12 03:11:39;;;;;;;24.33;18.50;;;14.00;99.90;;;;;;5012070;28;20534;-87
2021/08/12 03:14:05;;;;;;;24.33;16.80;;;14.00;99.90;;;;;;5005459;28;20065;-87
2021/08/12 03:16:31;;;;;;;25.13;18.48;;;13.90;99.90;;;;;;4998287;28;20030;-87
2021/08/12 03:18:57;;;;;;;25.83;18.73;;;13.90;99.90;;;;;;5009447;28;20026;-87
2021/08/12 03:21:23;;;;;;;26.10;18.17;;;13.90;99.90;;;;;;4998889;28;20378;-87
2021/08/12 03:23:48;;;;;;;24.92;16.33;;;13.90;99.90;;;;;;5006447;28;20478;-87
2021/08/12 03:26:15;;;;;;;23.35;16.90;;;13.90;99.90;;;;;;5003744;28;20034;-87
2021/08/12 03:28:40;;;;;;;24.45;16.45;;;13.80;99.90;;;;;;5010488;28;20030;-87
2021/08/12 03:31:06;;;;;;;25.55;16.88;;;13.80;99.90;;;;;;5005979;28;20030;-87
2021/08/12 03:33:32;;;;;;;23.00;16.65;;;13.70;99.90;;;;;;5010658;28;20113;-87
2021/08/12 03:35:58;;;;;;;25.02;17.75;;;13.60;99.90;;;;;;5001323;28;20049;-87
2021/08/12 03:38:24;;;;;;;23.65;17.08;;;13.60;99.90;;;;;;5011215;28;20037;-87
2021/08/12 03:40:50;;;;;;;26.13;18.13;;;13.70;99.90;;;;;;5006908;28;20030;-88
2021/08/12 03:43:16;;;;;;;28.38;20.20;;;13.60;99.90;;;;;;5004478;28;20490;-87
2021/08/12 03:45:43;;;;;;;29.70;19.58;;;13.60;99.90;;;;;;5007121;28;20026;-88
2021/08/12 03:48:09;;;;;;;28.10;19.10;;;13.60;99.90;;;;;;5016638;28;20026;-87
2021/08/12 03:50:35;;;;;;;25.38;18.05;;;13.60;99.90;;;;;;5009444;28;20058;-87
2021/08/12 03:53:01;;;;;;;22.77;16.90;;;13.60;99.90;;;;;;5010982;28;20042;-87
2021/08/12 03:55:26;;;;;;;27.17;17.70;;;13.50;99.90;;;;;;5013851;28;20389;-87
2021/08/12 03:57:52;;;;;;;30.38;18.95;;;13.60;99.90;;;;;;5012463;28;20061;-87
2021/08/12 04:00:17;;;;;;;28.45;18.40;;;13.60;99.90;;;;;;5014163;28;20038;-87
2021/08/12 04:02:43;;;;;;;27.35;18.67;;;13.50;99.90;;;;;;5012381;28;20033;-87
2021/08/12 04:05:09;;;;;;;29.50;20.75;;;13.50;99.90;;;;;;5013930;28;20049;-86
2021/08/12 04:07:34;;;;;;;28.67;20.45;;;13.50;99.90;;;;;;5011179;28;20052;-86
2021/08/12 04:10:00;;;;;;;28.48;20.92;;;13.50;99.90;;;;;;5010063;28;20113;-86
2021/08/12 04:12:26;;;;;;;32.72;21.65;;;13.50;99.90;;;;;;5003107;28;20528;-87
2021/08/12 04:14:51;;;;;;;32.90;22.25;;;13.50;99.90;;;;;;5013734;28;20037;-86
2021/08/12 04:17:17;;;;;;;30.27;22.33;;;13.50;99.90;;;;;;5004290;28;20100;-86
2021/08/12 04:19:42;;;;;;;31.15;21.92;;;13.40;99.90;;;;;;5004243;28;20029;-87
2021/08/12 04:22:08;;;;;;;28.52;21.63;;;13.40;99.90;;;;;;5010343;28;20018;-87
2021/08/12 04:24:34;;;;;;;32.92;22.65;;;13.40;99.90;;;;;;4998713;28;20134;-87
2021/08/12 04:26:59;;;;;;;30.85;22.92;;;13.40;99.90;;;;;;5016543;28;20030;-87
2021/08/12 04:29:25;;;;;;;29.27;22.30;;;13.40;99.90;;;;;;5008795;28;20019;-86
2021/08/12 04:31:50;;;;;;;34.95;23.35;;;13.40;99.90;;;;;;5005753;28;20375;-87
2021/08/12 04:34:16;;;;;;;34.50;23.08;;;13.40;99.90;;;;;;5010007;28;20048;-87
2021/08/12 04:36:42;;;;;;;27.83;19.35;;;13.30;99.90;;;;;;5012449;28;20137;-85
2021/08/12 04:39:08;;;;;;;27.13;19.52;;;13.30;99.90;;;;;;5007691;28;20062;-86
2021/08/12 04:41:34;;;;;;;29.95;20.63;;;13.30;99.90;;;;;;5015345;28;20006;-87
2021/08/12 04:43:59;;;;;;;29.45;20.95;;;13.30;99.90;;;;;;5021740;28;20032;-87
2021/08/12 04:46:25;;;;;;;28.63;20.38;;;13.30;99.90;;;;;;5025905;28;20037;-87
2021/08/12 04:48:50;;;;;;;29.23;19.90;;;13.40;99.90;;;;;;5020767;28;20028;-87
2021/08/12 04:51:16;;;;;;;29.02;21.60;;;13.40;99.90;;;;;;5022486;28;20116;-87
2021/08/12 04:53:41;;;;;;;29.55;21.58;;;13.40;99.90;;;;;;5014781;28;20041;-87
2021/08/12 04:56:07;;;;;;;29.48;21.23;;;13.40;99.90;;;;;;4999871;28;20026;-88
2021/08/12 04:58:32;;;;;;;30.55;21.23;;;13.50;99.90;;;;;;5009682;28;20030;-90
2021/08/12 05:00:58;;;;;;;26.33;19.70;;;13.50;99.90;;;;;;5006888;28;20048;-87
2021/08/12 05:03:24;;;;;;;30.42;21.67;;;13.50;99.90;;;;;;4999366;28;20025;-87
2021/08/12 05:05:59;;;;;;;28.52;20.05;;;13.50;99.90;;;;;;5005102;28;20153;-87
2021/08/12 05:08:24;;;;;;;30.70;22.30;;;13.50;99.90;;;;;;5012314;28;20030;-87
2021/08/12 05:10:50;;;;;;;30.88;21.25;;;13.60;99.90;;;;;;4997097;28;20026;-87
2021/08/12 05:13:15;;;;;;;30.00;21.40;;;13.60;99.90;;;;;;4994301;28;20042;-87
2021/08/12 05:15:41;;;;;;;33.33;21.90;;;13.60;99.90;;;;;;5014123;28;20030;-87
2021/08/12 05:18:06;;;;;;;33.58;23.83;;;13.60;99.90;;;;;;5014513;28;20075;-87
2021/08/12 05:20:32;;;;;;;34.28;22.77;;;13.70;99.90;;;;;;5016201;28;20026;-88
2021/08/12 05:22:57;;;;;;;31.42;22.50;;;13.70;99.90;;;;;;5014455;28;20029;-88
2021/08/12 05:25:23;;;;;;;32.03;23.10;;;13.80;99.90;;;;;;5013718;28;20038;-87
2021/08/12 05:27:48;;;;;;;29.73;21.73;;;13.80;99.90;;;;;;5014449;28;20140;-86
2021/08/12 05:30:14;;;;;;;32.40;22.58;;;13.90;99.90;;;;;;5012767;28;20295;-86
2021/08/12 05:32:39;;;;;;;34.28;23.80;;;14.00;99.90;;;;;;5009535;28;20029;-87
2021/08/12 05:35:05;;;;;;;29.15;22.27;;;14.10;99.90;;;;;;5008320;28;20041;-87
2021/08/12 05:37:31;;;;;;;34.65;22.98;;;14.20;99.90;;;;;;5010739;28;20145;-87
2021/08/12 05:39:56;;;;;;;30.98;22.88;;;14.30;99.90;;;;;;5007999;28;20506;-87
2021/08/12 05:42:22;;;;;;;33.75;22.95;;;14.40;99.90;;;;;;5002560;28;20028;-87
2021/08/12 05:44:47;;;;;;;32.45;23.00;;;14.50;99.90;;;;;;5013246;28;20073;-87
2021/08/12 05:47:13;;;;;;;28.85;22.13;;;14.60;99.90;;;;;;5012797;28;20041;-86
2021/08/12 05:49:38;;;;;;;30.13;22.40;;;14.80;99.90;;;;;;5010065;28;20027;-86
2021/08/12 05:52:04;;;;;;;28.88;21.88;;;15.00;99.90;;;;;;5002563;28;20426;-86
2021/08/12 05:54:31;;;;;;;29.85;21.08;;;15.10;99.90;;;;;;5014704;28;20064;-87
2021/08/12 05:56:57;;;;;;;32.72;22.90;;;15.30;99.90;;;;;;5012812;28;20048;-87
2021/08/12 05:59:23;;;;;;;29.42;21.60;;;15.40;99.90;;;;;;5011645;28;20034;-86
2021/08/12 06:01:48;;;;;;;29.08;21.58;;;15.50;99.90;;;;;;5005928;28;20071;-87
2021/08/12 06:04:14;;;;;;;28.85;21.92;;;15.50;99.90;;;;;;5012057;28;20506;-86
2021/08/12 06:06:39;;;;;;;26.98;21.30;;;15.60;99.90;;;;;;5012239;28;20078;-87
2021/08/12 06:09:05;;;;;;;27.40;20.90;;;15.70;99.90;;;;;;5013076;28;20461;-86
2021/08/12 06:11:31;;;;;;;28.15;20.60;;;15.70;99.90;;;;;;5010455;28;20030;-87
2021/08/12 06:13:56;;;;;;;27.90;20.67;;;15.80;99.90;;;;;;5012024;28;20069;-87
2021/08/12 06:16:22;;;;;;;26.67;19.58;;;16.00;99.90;;;;;;5006051;28;20506;-86
2021/08/12 06:18:47;;;;;;;26.92;20.73;;;16.10;99.90;;;;;;5012751;28;20484;-87
2021/08/12 06:21:14;;;;;;;28.15;21.27;;;16.30;99.90;;;;;;5014297;28;20030;-87
2021/08/12 06:23:41;;;;;;;25.33;20.85;;;16.40;99.90;;;;;;5006516;28;20483;-87
2021/08/12 06:26:07;;;;;;;24.55;19.73;;;16.50;99.90;;;;;;4993302;28;20466;-87
2021/08/12 06:28:32;;;;;;;25.80;19.23;;;16.60;99.90;;;;;;5011823;28;20378;-88
2021/08/12 06:30:58;;;;;;;26.67;20.13;;;16.70;99.90;;;;;;5010887;28;21493;-87
2021/08/12 06:33:23;;;;;;;25.52;19.65;;;16.80;99.90;;;;;;5003722;28;20030;-88
2021/08/12 06:35:49;;;;;;;23.23;18.80;;;16.90;99.90;;;;;;4997125;28;20081;-88
2021/08/12 06:38:14;;;;;;;24.30;17.95;;;17.00;99.90;;;;;;5009109;28;20026;-87
2021/08/12 06:40:41;;;;;;;24.17;18.17;;;17.10;99.90;;;;;;5002417;28;20018;-87
2021/08/12 06:43:07;;;;;;;26.80;19.50;;;17.20;99.90;;;;;;5012436;28;20028;-87
2021/08/12 06:45:32;;;;;;;22.67;18.83;;;17.30;99.90;;;;;;5013083;28;20034;-87
2021/08/12 06:47:58;;;;;;;20.83;16.98;;;17.40;99.90;;;;;;5012319;28;20426;-87
2021/08/12 06:50:24;;;;;;;19.23;17.10;;;17.50;99.90;;;;;;5014211;28;20052;-87
2021/08/12 06:52:50;;;;;;;19.27;16.27;;;17.60;99.90;;;;;;5005457;28;20045;-87
2021/08/12 06:55:15;;;;;;;22.48;16.85;;;17.70;99.90;;;;;;5012016;28;20026;-88
2021/08/12 06:57:41;;;;;;;19.52;16.02;;;17.90;99.90;;;;;;5011121;28;20026;-89
2021/08/12 07:00:08;;;;;;;18.35;15.35;;;18.00;99.90;;;;;;5004806;28;20032;-88
2021/08/12 07:02:33;;;;;;;20.48;15.43;;;18.10;99.90;;;;;;5011019;28;20033;-88
2021/08/12 07:04:59;;;;;;;18.60;15.25;;;18.20;99.80;;;;;;5010728;28;20172;-88
2021/08/12 07:07:24;;;;;;;19.73;16.33;;;18.30;99.60;;;;;;5011095;28;20022;-88
2021/08/12 07:09:53;;;;;;;19.20;14.90;;;18.40;99.30;;;;;;5011889;28;20471;-88
2021/08/12 07:12:21;;;;;;;19.02;15.07;;;18.50;99.10;;;;;;5005652;28;20034;-88
2021/08/12 07:14:47;;;;;;;16.90;13.18;;;18.60;98.80;;;;;;5010363;28;20414;-87
2021/08/12 07:17:13;;;;;;;18.45;15.02;;;18.70;98.60;;;;;;5009611;28;20040;-87
2021/08/12 07:19:38;;;;;;;16.15;13.35;;;18.80;98.30;;;;;;5016545;28;20029;-87
2021/08/12 07:22:04;;;;;;;16.25;13.23;;;19.00;98.10;;;;;;5010852;28;20088;-87
2021/08/12 07:24:30;;;;;;;15.80;13.07;;;19.10;97.80;;;;;;5015559;28;20490;-87
2021/08/12 07:26:57;;;;;;;19.55;12.77;;;19.20;97.40;;;;;;5016912;28;20021;-88
2021/08/12 07:29:23;;;;;;;16.63;12.48;;;19.40;97.10;;;;;;5014552;28;20457;-85
2021/08/12 07:31:49;;;;;;;14.63;11.60;;;19.50;97.00;;;;;;5011049;28;20495;-87
2021/08/12 07:34:15;;;;;;;17.83;12.93;;;19.60;96.80;;;;;;5001014;28;20080;-87
2021/08/12 07:36:40;;;;;;;14.85;12.32;;;19.70;96.50;;;;;;5013164;28;21009;-87
2021/08/12 07:39:06;;;;;;;14.63;9.82;;;19.90;96.40;;;;;;5012368;28;20033;-85
2021/08/12 07:41:35;;;;;;;12.88;9.55;;;20.00;95.70;;;;;;5012964;28;20095;-87
2021/08/12 07:44:03;;;;;;;12.10;10.05;;;20.00;95.10;;;;;;5005495;28;20026;-88
2021/08/12 07:46:28;;;;;;;11.65;9.10;;;20.10;94.40;;;;;;5015745;28;20382;-87
2021/08/12 07:48:54;;;;;;;11.10;8.88;;;20.20;94.10;;;;;;5016614;28;20029;-87
2021/08/12 07:51:23;;;;;;;10.20;8.93;;;20.20;93.70;;;;;;5016990;28;20032;-85
2021/08/12 07:53:52;;;;;;;12.02;9.10;;;20.30;92.90;;;;;;5015047;28;20045;-85
2021/08/12 07:56:18;;;;;;;9.93;8.38;;;20.40;92.50;;;;;;5013276;28;20030;-88
2021/08/12 07:58:43;;;;;;;11.68;8.30;;;20.50;92.40;;;;;;5016083;28;20026;-87
2021/08/12 08:01:09;;;;;;;11.27;8.55;;;20.60;92.10;;;;;;5007502;28;20509;-87
2021/08/12 08:03:34;;;;;;;12.07;8.80;;;20.60;91.60;;;;;;5016151;28;20025;-87
2021/08/12 08:06:00;;;;;;;12.90;9.00;;;20.70;91.40;;;;;;5014157;28;20085;-88
2021/08/12 08:08:26;;;;;;;10.30;8.98;;;20.70;91.20;;;;;;5007994;28;20026;-87
2021/08/12 08:10:52;;;;;;;10.05;7.70;;;20.80;91.00;;;;;;5012605;28;20029;-87
2021/08/12 08:13:17;;;;;;;11.18;8.10;;;20.90;90.80;;;;;;5014541;28;20045;-87
2021/08/12 08:15:43;;;;;;;9.77;7.47;;;21.00;90.30;;;;;;5017462;28;20041;-87
2021/08/12 08:18:08;;;;;;;7.75;6.60;;;21.10;90.10;;;;;;5007933;28;20018;-87
2021/08/12 08:20:34;;;;;;;10.32;6.95;;;21.10;90.20;;;;;;5015536;28;20512;-87
2021/08/12 08:23:05;;;;;;;9.82;6.60;;;21.20;90.20;;;;;;5013993;28;20759;-87
2021/08/12 08:25:31;;;;;;;9.27;6.47;;;21.40;89.70;;;;;;4997639;28;20031;-87
2021/08/12 08:27:57;;;;;;;8.95;6.95;;;21.50;89.30;;;;;;4996684;28;20026;-87
2021/08/12 08:30:22;;;;;;;10.10;6.40;;;21.70;88.70;;;;;;5013290;28;20084;-84
2021/08/12 08:32:48;;;;;;;8.15;5.72;;;21.80;87.90;;;;;;5015025;28;20038;-87
2021/08/12 08:35:14;;;;;;;7.50;6.30;;;21.80;87.20;;;;;;5016135;28;20026;-85
2021/08/12 08:37:39;;;;;;;7.93;5.25;;;21.90;86.70;;;;;;5012610;28;20030;-87
2021/08/12 08:40:05;;;;;;;5.68;4.32;;;21.90;85.80;;;;;;5015799;28;20025;-87
2021/08/12 08:42:32;;;;;;;9.52;5.70;;;22.00;85.80;;;;;;5003856;28;20028;-87
2021/08/12 08:44:59;;;;;;;7.95;5.53;;;22.10;85.10;;;;;;5007388;28;20100;-87
2021/08/12 08:47:26;;;;;;;8.45;5.13;;;22.10;84.70;;;;;;5010833;28;20029;-85
2021/08/12 08:49:52;;;;;;;6.38;4.70;;;22.10;84.40;;;;;;5014348;28;20021;-84
2021/08/12 08:52:21;;;;;;;5.72;4.30;;;22.20;84.20;;;;;;5014203;28;20045;-87
2021/08/12 08:54:46;;;;;;;5.45;3.53;;;22.30;83.80;;;;;;5014915;28;20029;-87
2021/08/12 08:57:12;;;;;;;6.68;4.40;;;22.40;84.00;;;;;;5006264;28;20394;-86
2021/08/12 08:59:38;;;;;;;5.43;4.15;;;22.60;84.00;;;;;;4999266;28;20133;-86
2021/08/12 09:02:05;;;;;;;8.98;4.72;;;22.70;83.30;;;;;;4998712;28;20121;-86
2021/08/12 09:04:32;;;;;;;5.40;4.40;;;22.80;81.80;;;;;;5012975;28;20026;-85
2021/08/12 09:06:58;;;;;;;6.10;4.75;;;22.70;81.60;;;;;;5011986;28;20116;-86
2021/08/12 09:09:24;;;;;;;7.85;4.75;;;22.80;81.30;;;;;;5013575;28;20038;-86
2021/08/12 09:11:49;;;;;;;4.85;3.85;;;22.90;81.60;;;;;;5011821;28;20022;-86
2021/08/12 09:14:31;;;;;;;6.22;3.95;;;23.10;80.70;;;;;;5012590;28;20096;-86
2021/08/12 09:16:57;;;;;;;4.30;3.80;;;23.20;79.50;;;;;;5010228;28;20037;-85
2021/08/12 09:19:24;;;;;;;6.35;4.68;;;23.30;79.00;;;;;;4994794;28;20026;-85
2021/08/12 09:21:57;;;;;;;7.22;5.00;;;23.40;78.10;;;;;;5013519;28;20022;-85
2021/08/12 09:24:23;;;;;;;7.45;5.38;;;23.40;77.70;;;;;;5013854;28;20034;-86
2021/08/12 09:26:49;;;;;;;7.15;4.90;;;23.40;77.40;;;;;;5013572;28;20037;-85
2021/08/12 09:29:32;;;;;;;6.22;4.43;;;23.40;77.60;;;;;;5013272;28;20026;-86
2021/08/12 09:32:03;;;;;;;6.25;4.70;;;23.50;78.20;;;;;;5009399;28;20153;-86
2021/08/12 09:34:40;;;;;;;5.93;4.75;;;23.60;78.20;;;;;;5013251;28;20065;-85
2021/08/12 09:37:07;;;;;;;8.13;4.63;;;23.70;77.90;;;;;;5012051;28;20026;-85
2021/08/12 09:39:34;;;;;;;8.38;5.60;;;23.70;77.00;;;;;;5014237;28;20094;-85
2021/08/12 09:42:00;;;;;;;11.02;5.72;;;23.80;77.30;;;;;;5008890;28;20029;-85
2021/08/12 09:44:51;;;;;;;5.55;4.78;;;23.90;76.60;;;;;;5014438;28;20022;-85
2021/08/12 09:47:19;;;;;;;5.97;4.10;;;24.10;77.80;;;;;;4998111;28;20061;-86
2021/08/12 09:49:53;;;;;;;4.72;3.47;;;24.20;77.10;;;;;;5002574;28;20117;-86
2021/08/12 09:52:37;;;;;;;8.65;4.22;;;24.20;75.80;;;;;;5005060;28;20109;-85
2021/08/12 09:55:10;;;;;;;6.35;3.60;;;24.30;74.70;;;;;;5014134;28;20040;-86
2021/08/12 09:57:42;;;;;;;5.90;3.50;;;24.30;74.20;;;;;;5002114;28;20120;-85
2021/08/12 10:00:29;;;;;;;;;;;24.40;73.60;;;;;;5013631;28;20034;-85
2021/08/12 10:02:54;;;;;;;4.20;2.75;;;24.30;73.70;;;;;;5008971;28;19952;-85
2021/08/12 10:05:20;;;;;;;3.35;2.40;;;24.40;73.60;;;;;;5007867;28;20077;-86
2021/08/12 10:07:52;;;;;;;4.30;2.92;;;24.40;72.50;;;;;;5010066;28;20060;-85
2021/08/12 10:10:19;;;;;;;7.55;2.85;;;24.40;72.40;;;;;;5001377;28;20030;-86
2021/08/12 10:12:48;;;;;;;3.97;2.45;;;24.40;71.80;;;;;;5001427;28;20390;-86
2021/08/12 10:15:21;;;;;;;4.38;2.60;;;24.40;71.20;;;;;;5012201;28;20029;-86
2021/08/12 10:17:47;;;;;;;5.20;3.55;;;24.50;71.30;;;;;;5013841;28;20026;-86
2021/08/12 10:20:34;;;;;;;3.75;2.63;;;24.60;71.20;;;;;;5013342;28;20018;-87
2021/08/12 10:23:02;;;;;;;6.05;3.40;;;24.70;70.90;;;;;;5018559;28;20085;-85
2021/08/12 10:25:29;;;;;;;5.95;3.50;;;24.80;71.20;;;;;;5010272;28;20027;-86
2021/08/12 10:28:01;;;;;;;6.63;4.13;;;24.90;71.20;;;;;;5023700;28;20501;-85
2021/08/12 10:30:28;;;;;;;9.68;4.05;;;25.00;71.20;;;;;;5000230;28;20029;-87
2021/08/12 10:32:56;;;;;;;6.68;4.25;;;24.90;70.80;;;;;;5015229;28;20127;-86
2021/08/12 10:35:27;;;;;;;6.57;3.42;;;24.90;70.60;;;;;;5009534;28;20037;-86
2021/08/12 10:37:54;;;;;;;5.35;3.40;;;24.90;70.50;;;;;;4992760;28;20054;-87
2021/08/12 10:40:24;;;;;;;5.85;3.40;;;25.00;70.50;;;;;;4994953;28;20026;-87
2021/08/12 10:42:50;;;;;;;4.25;3.25;;;25.10;70.90;;;;;;5008603;28;20030;-86
2021/08/12 10:45:22;;;;;;;5.05;3.75;;;25.10;70.50;;;;;;5013107;28;20132;-86
2021/08/12 10:47:56;;;;;;;5.68;4.25;;;25.10;70.50;;;;;;5014987;28;20029;-86
2021/08/12 10:50:21;;;;;;;5.32;3.85;;;25.00;70.30;;;;;;5011696;28;20582;-85
2021/08/12 10:53:11;;;;;;;9.00;3.90;;;25.00;70.50;;;;;;5013458;28;20113;-86
2021/08/12 10:55:40;;;;;;;4.90;3.58;;;25.10;70.70;;;;;;5014364;28;20033;-86
2021/08/12 10:58:18;;;;;;;5.97;3.88;;;25.10;71.30;;;;;;5014970;28;20026;-87
2021/08/12 11:00:51;;;;;;;6.15;4.10;;;25.30;71.20;;;;;;5010956;28;20092;-87
2021/08/12 11:03:43;;;;;;;4.60;3.53;;;25.50;70.90;;;;;;5010053;28;20029;-86
2021/08/12 11:06:21;;;;;;;5.20;3.30;;;25.60;70.80;;;;;;4986358;28;20301;-87
2021/08/12 11:08:49;;;;;;;4.75;3.20;;;25.80;69.90;;;;;;5011735;28;20092;-86
2021/08/12 11:11:35;;;;;;;5.82;3.92;;;25.80;69.30;;;;;;5006562;28;20494;-87
2021/08/12 11:14:04;;;;;;;6.43;3.20;;;25.80;68.70;;;;;;5011268;28;20041;-88
2021/08/12 11:16:45;;;;;;;4.50;3.15;;;25.80;68.80;;;;;;4999989;28;20022;-86
2021/08/12 11:19:23;;;;;;;5.60;3.10;;;25.90;68.80;;;;;;4999233;28;20048;-85
2021/08/12 11:21:49;;;;;;;5.10;2.83;;;26.10;69.80;;;;;;5011194;28;20044;-86
2021/08/12 11:24:28;;;;;;;3.47;2.30;;;26.10;67.70;;;;;;5014191;28;20022;-86
2021/08/12 11:27:00;;;;;;;4.75;2.78;;;26.10;67.20;;;;;;5013817;28;20026;-87
2021/08/12 11:29:27;;;;;;;5.03;2.53;;;26.00;66.60;;;;;;4994738;28;20018;-86
2021/08/12 11:32:15;;;;;;;4.05;2.83;;;25.90;67.40;;;;;;5001329;28;20056;-87
2021/08/12 11:34:57;;;;;;;3.55;2.15;;;25.80;66.50;;;;;;5010993;28;20042;-87
2021/08/12 11:37:27;;;;;;;3.90;2.05;;;25.70;66.90;;;;;;5004517;28;20030;-86
2021/08/12 11:40:09;;;;;;;4.03;2.22;;;25.70;67.70;;;;;;4999659;28;20098;-88
2021/08/12 11:42:40;;;;;;;5.70;2.08;;;26.00;67.50;;;;;;5012208;28;20037;-86
2021/08/12 11:45:13;;;;;;;4.43;2.20;;;26.20;67.20;;;;;;5011965;28;20026;-86
2021/08/12 11:47:42;;;;;;;3.80;2.15;;;26.50;66.20;;;;;;5013179;28;20030;-86
2021/08/12 11:50:10;;;;;;;3.40;2.08;;;26.60;65.60;;;;;;4996395;28;20031;-87
2021/08/12 11:52:38;;;;;;;4.32;2.47;;;26.70;64.90;;;;;;5003370;28;20030;-86
2021/08/12 11:55:12;;;;;;;5.35;3.22;;;26.70;64.70;;;;;;5000010;28;20089;-87
2021/08/12 11:57:46;;;;;;;3.80;2.38;;;26.80;64.50;;;;;;5010732;28;20022;-86
2021/08/12 12:00:21;;;;;;;4.57;1.83;;;26.90;65.00;;;;;;5013925;28;20038;-86
2021/08/12 12:02:53;;;;;;;4.65;2.20;;;27.20;65.40;;;;;;5006898;28;20095;-86
2021/08/12 12:05:21;;;;;;;4.15;2.40;;;27.50;64.60;;;;;;5014509;28;20049;-87
2021/08/12 12:07:49;;;;;;;5.90;2.35;;;27.60;63.80;;;;;;5005699;28;20113;-86
2021/08/12 12:10:23;;;;;;;3.13;1.90;;;27.70;62.20;;;;;;5011989;28;20030;-86
2021/08/12 12:12:48;;;;;;;4.95;2.50;;;27.80;62.20;;;;;;5005612;28;20049;-87
2021/08/12 12:15:29;;;;;;;4.65;2.45;;;27.90;61.40;;;;;;5018201;28;20030;-86
2021/08/12 12:17:54;;;;;;;4.55;2.60;;;27.90;60.70;;;;;;5014436;28;20105;-87
2021/08/12 12:20:20;;;;;;;5.18;2.20;;;27.90;62.10;;;;;;5018449;28;20061;-87
2021/08/12 12:23:03;;;;;;;4.32;2.30;;;28.00;62.10;;;;;;5015010;28;20516;-87
2021/08/12 12:25:31;;;;;;;4.47;2.30;;;28.00;61.70;;;;;;4998467;28;20035;-87
2021/08/12 12:27:58;;;;;;;3.38;2.22;;;28.10;61.80;;;;;;5012016;28;20018;-87
2021/08/12 12:30:25;;;;;;;4.28;2.63;;;28.10;60.90;;;;;;5016233;28;20034;-87
2021/08/12 12:33:09;;;;;;;3.42;2.40;;;27.90;60.60;;;;;;5014455;28;20149;-87
2021/08/12 12:35:38;;;;;;;4.13;2.88;;;27.80;60.90;;;;;;5015847;28;20088;-87
2021/08/12 12:38:06;;;;;;;3.83;2.53;;;27.80;61.20;;;;;;5014697;28;20093;-85
2021/08/12 12:40:34;;;;;;;4.32;2.05;;;27.90;61.90;;;;;;5015615;28;20026;-84
2021/08/12 12:43:00;;;;;;;3.35;2.38;;;27.90;62.10;;;;;;5012854;28;20022;-88